sensor_id;sensor_type;location;lat;lon;timestamp;pressure;altitude;pressure_sealevel;temperature
74449;BMP280;62878;51.026;4.472;2022-09-06T00:01:31;-6091.88;;;23.49
74449;BMP280;62878;51.026;4.472;2022-09-06T00:03:57;-6092.72;;;23.54
74449;BMP280;62878;51.026;4.472;2022-09-06T00:06:22;-6092.88;;;23.55
74449;BMP280;62878;51.026;4.472;2022-09-06T00:08:50;-6089.69;;;23.36
74449;BMP280;62878;51.026;4.472;2022-09-06T00:11:16;-6090.94;;;23.44
74449;BMP280;62878;51.026;4.472;2022-09-06T00:13:42;-6093.13;;;23.57
74449;BMP280;62878;51.026;4.472;2022-09-06T00:16:11;-6093.13;;;23.57
74449;BMP280;62878;51.026;4.472;2022-09-06T00:18:37;-6091.13;;;23.45
74449;BMP280;62878;51.026;4.472;2022-09-06T00:21:13;-6090.78;;;23.43
74449;BMP280;62878;51.026;4.472;2022-09-06T00:23:39;-6093.13;;;23.57
74449;BMP280;62878;51.026;4.472;2022-09-06T00:26:04;-6091.22;;;23.45
74449;BMP280;62878;51.026;4.472;2022-09-06T00:28:30;-6092.81;;;23.55
74449;BMP280;62878;51.026;4.472;2022-09-06T00:30:55;-6092.03;;;23.50
74449;BMP280;62878;51.026;4.472;2022-09-06T00:33:22;-6091.63;;;23.48
74449;BMP280;62878;51.026;4.472;2022-09-06T00:35:47;-6090.53;;;23.41
74449;BMP280;62878;51.026;4.472;2022-09-06T00:38:13;-6091.47;;;23.47
74449;BMP280;62878;51.026;4.472;2022-09-06T00:40:38;-6092.63;;;23.54
74449;BMP280;62878;51.026;4.472;2022-09-06T00:43:03;-6092.63;;;23.54
74449;BMP280;62878;51.026;4.472;2022-09-06T00:45:29;-6092.22;;;23.51
74449;BMP280;62878;51.026;4.472;2022-09-06T00:47:57;-6092.47;;;23.53
74449;BMP280;62878;51.026;4.472;2022-09-06T00:50:24;-6088.44;;;23.29
74449;BMP280;62878;51.026;4.472;2022-09-06T00:52:51;-6092.03;;;23.50
74449;BMP280;62878;51.026;4.472;2022-09-06T00:55:18;-6091.88;;;23.49
74449;BMP280;62878;51.026;4.472;2022-09-06T00:57:44;-6091.88;;;23.49
74449;BMP280;62878;51.026;4.472;2022-09-06T01:00:11;-6091.78;;;23.49
74449;BMP280;62878;51.026;4.472;2022-09-06T01:02:36;-6091.03;;;23.44
74449;BMP280;62878;51.026;4.472;2022-09-06T01:05:03;-6088.94;;;23.32
74449;BMP280;62878;51.026;4.472;2022-09-06T01:07:42;-6091.72;;;23.48
74449;BMP280;62878;51.026;4.472;2022-09-06T01:18:06;-6091.47;;;23.47
74449;BMP280;62878;51.026;4.472;2022-09-06T01:20:44;-6091.38;;;23.46
74449;BMP280;62878;51.026;4.472;2022-09-06T01:28:44;-6090.63;;;23.42
74449;BMP280;62878;51.026;4.472;2022-09-06T01:34:10;-6090.88;;;23.43
74449;BMP280;62878;51.026;4.472;2022-09-06T01:36:45;-6090.78;;;23.43
74449;BMP280;62878;51.026;4.472;2022-09-06T01:39:20;-6091.03;;;23.44
74449;BMP280;62878;51.026;4.472;2022-09-06T01:41:47;-6088.69;;;23.30
74449;BMP280;62878;51.026;4.472;2022-09-06T01:44:12;-6090.13;;;23.39
74449;BMP280;62878;51.026;4.472;2022-09-06T01:46:49;-6087.44;;;23.23
74449;BMP280;62878;51.026;4.472;2022-09-06T01:52:15;-6090.44;;;23.41
74449;BMP280;62878;51.026;4.472;2022-09-06T01:57:35;-6088.44;;;23.29
74449;BMP280;62878;51.026;4.472;2022-09-06T02:00:06;-6089.94;;;23.38
74449;BMP280;62878;51.026;4.472;2022-09-06T02:08:18;-6089.78;;;23.37
74449;BMP280;62878;51.026;4.472;2022-09-06T02:11:03;-6089.78;;;23.37
74449;BMP280;62878;51.026;4.472;2022-09-06T02:16:18;-6089.63;;;23.36
74449;BMP280;62878;51.026;4.472;2022-09-06T02:19:09;-6088.09;;;23.27
74449;BMP280;62878;51.026;4.472;2022-09-06T02:21:40;-6089.44;;;23.35
74449;BMP280;62878;51.026;4.472;2022-09-06T02:24:09;-6082.16;;;22.91
74449;BMP280;62878;51.026;4.472;2022-09-06T02:26:39;-6089.28;;;23.34
74449;BMP280;62878;51.026;4.472;2022-09-06T02:29:06;-6089.03;;;23.32
74449;BMP280;62878;51.026;4.472;2022-09-06T02:31:42;-6088.59;;;23.30
74449;BMP280;62878;51.026;4.472;2022-09-06T02:34:13;-6088.09;;;23.27
74449;BMP280;62878;51.026;4.472;2022-09-06T02:36:39;-6088.28;;;23.28
74449;BMP280;62878;51.026;4.472;2022-09-06T02:39:04;-6088.34;;;23.28
74449;BMP280;62878;51.026;4.472;2022-09-06T02:41:30;-6088.09;;;23.27
74449;BMP280;62878;51.026;4.472;2022-09-06T02:43:56;-6083.75;;;23.00
74449;BMP280;62878;51.026;4.472;2022-09-06T02:46:21;-6083.66;;;23.00
74449;BMP280;62878;51.026;4.472;2022-09-06T02:48:49;-6087.84;;;23.25
74449;BMP280;62878;51.026;4.472;2022-09-06T02:51:15;-6087.59;;;23.24
74449;BMP280;62878;51.026;4.472;2022-09-06T02:53:40;-6087.44;;;23.23
74449;BMP280;62878;51.026;4.472;2022-09-06T02:56:06;-6087.50;;;23.23
74449;BMP280;62878;51.026;4.472;2022-09-06T02:58:32;-6086.34;;;23.16
74449;BMP280;62878;51.026;4.472;2022-09-06T03:00:57;-6087.09;;;23.21
74449;BMP280;62878;51.026;4.472;2022-09-06T03:03:23;-6086.75;;;23.19
74449;BMP280;62878;51.026;4.472;2022-09-06T03:05:51;-6086.84;;;23.19
74449;BMP280;62878;51.026;4.472;2022-09-06T03:08:18;-6086.59;;;23.18
74449;BMP280;62878;51.026;4.472;2022-09-06T03:10:54;-6086.50;;;23.17
74449;BMP280;62878;51.026;4.472;2022-09-06T03:13:22;-6086.44;;;23.17
74449;BMP280;62878;51.026;4.472;2022-09-06T03:15:56;-6085.91;;;23.14
74449;BMP280;62878;51.026;4.472;2022-09-06T03:18:25;-6086.00;;;23.14
74449;BMP280;62878;51.026;4.472;2022-09-06T03:20:53;-6086.00;;;23.14
74449;BMP280;62878;51.026;4.472;2022-09-06T03:23:20;-6085.75;;;23.13
74449;BMP280;62878;51.026;4.472;2022-09-06T03:25:45;-6085.75;;;23.13
74449;BMP280;62878;51.026;4.472;2022-09-06T03:28:10;-6084.59;;;23.06
74449;BMP280;62878;51.026;4.472;2022-09-06T03:30:37;-6081.91;;;22.89
74449;BMP280;62878;51.026;4.472;2022-09-06T03:33:02;-6083.91;;;23.02
74449;BMP280;62878;51.026;4.472;2022-09-06T03:35:28;-6085.25;;;23.10
74449;BMP280;62878;51.026;4.472;2022-09-06T03:37:54;-6085.25;;;23.10
74449;BMP280;62878;51.026;4.472;2022-09-06T03:40:19;-6083.66;;;23.00
74449;BMP280;62878;51.026;4.472;2022-09-06T03:42:44;-6084.41;;;23.05
74449;BMP280;62878;51.026;4.472;2022-09-06T03:45:11;-6084.75;;;23.07
74449;BMP280;62878;51.026;4.472;2022-09-06T03:47:36;-6084.84;;;23.07
74449;BMP280;62878;51.026;4.472;2022-09-06T03:50:03;-6084.75;;;23.07
74449;BMP280;62878;51.026;4.472;2022-09-06T03:52:31;-6083.06;;;22.96
74449;BMP280;62878;51.026;4.472;2022-09-06T03:54:58;-6084.41;;;23.05
74449;BMP280;62878;51.026;4.472;2022-09-06T03:57:24;-6080.88;;;22.83
74449;BMP280;62878;51.026;4.472;2022-09-06T03:59:49;-6082.91;;;22.95
74449;BMP280;62878;51.026;4.472;2022-09-06T04:02:15;-6082.41;;;22.92
74449;BMP280;62878;51.026;4.472;2022-09-06T04:04:40;-6083.66;;;23.00
74449;BMP280;62878;51.026;4.472;2022-09-06T04:07:05;-6082.22;;;22.91
74449;BMP280;62878;51.026;4.472;2022-09-06T04:09:31;-6076.53;;;22.57
74449;BMP280;62878;51.026;4.472;2022-09-06T04:11:56;-6080.97;;;22.84
74449;BMP280;62878;51.026;4.472;2022-09-06T04:14:21;-6083.50;;;22.99
74449;BMP280;62878;51.026;4.472;2022-09-06T04:16:47;-6083.16;;;22.97
74449;BMP280;62878;51.026;4.472;2022-09-06T04:19:12;-6076.34;;;22.56
74449;BMP280;62878;51.026;4.472;2022-09-06T04:21:38;-6076.03;;;22.54
74449;BMP280;62878;51.026;4.472;2022-09-06T04:24:03;-6083.06;;;22.96
74449;BMP280;62878;51.026;4.472;2022-09-06T04:26:29;-6083.00;;;22.96
74449;BMP280;62878;51.026;4.472;2022-09-06T04:28:54;-6081.72;;;22.88
74449;BMP280;62878;51.026;4.472;2022-09-06T04:31:19;-6080.81;;;22.83
74449;BMP280;62878;51.026;4.472;2022-09-06T04:33:45;-6082.66;;;22.94
74449;BMP280;62878;51.026;4.472;2022-09-06T04:36:11;-6082.56;;;22.93
74449;BMP280;62878;51.026;4.472;2022-09-06T04:38:38;-6079.72;;;22.76
74449;BMP280;62878;51.026;4.472;2022-09-06T04:41:05;-6081.91;;;22.89
74449;BMP280;62878;51.026;4.472;2022-09-06T04:43:31;-6082.16;;;22.91
74449;BMP280;62878;51.026;4.472;2022-09-06T04:48:39;-6081.81;;;22.89
74449;BMP280;62878;51.026;4.472;2022-09-06T04:51:04;-6081.81;;;22.89
74449;BMP280;62878;51.026;4.472;2022-09-06T04:53:29;-6081.81;;;22.89
74449;BMP280;62878;51.026;4.472;2022-09-06T04:55:56;-6081.56;;;22.87
74449;BMP280;62878;51.026;4.472;2022-09-06T04:58:22;-6081.41;;;22.86
74449;BMP280;62878;51.026;4.472;2022-09-06T05:00:47;-6079.78;;;22.77
74449;BMP280;62878;51.026;4.472;2022-09-06T05:03:13;-6078.53;;;22.69
74449;BMP280;62878;51.026;4.472;2022-09-06T05:05:38;-6081.13;;;22.85
74449;BMP280;62878;51.026;4.472;2022-09-06T05:08:03;-6081.13;;;22.85
74449;BMP280;62878;51.026;4.472;2022-09-06T05:10:28;-6078.38;;;22.68
74449;BMP280;62878;51.026;4.472;2022-09-06T05:12:54;-6078.97;;;22.72
74449;BMP280;62878;51.026;4.472;2022-09-06T05:15:20;-6079.22;;;22.73
74449;BMP280;62878;51.026;4.472;2022-09-06T05:17:46;-6079.72;;;22.76
74449;BMP280;62878;51.026;4.472;2022-09-06T05:20:14;-6080.56;;;22.81
74449;BMP280;62878;51.026;4.472;2022-09-06T05:22:39;-6080.06;;;22.78
74449;BMP280;62878;51.026;4.472;2022-09-06T05:25:08;-6078.72;;;22.70
74449;BMP280;62878;51.026;4.472;2022-09-06T05:27:34;-6078.97;;;22.72
74449;BMP280;62878;51.026;4.472;2022-09-06T05:30:00;-6078.22;;;22.67
74449;BMP280;62878;51.026;4.472;2022-09-06T05:32:25;-6079.03;;;22.72
74449;BMP280;62878;51.026;4.472;2022-09-06T05:34:50;-6080.06;;;22.78
74449;BMP280;62878;51.026;4.472;2022-09-06T05:37:16;-6080.06;;;22.78
74449;BMP280;62878;51.026;4.472;2022-09-06T05:39:41;-6079.88;;;22.77
74449;BMP280;62878;51.026;4.472;2022-09-06T05:42:06;-6076.94;;;22.60
74449;BMP280;62878;51.026;4.472;2022-09-06T05:44:36;-6079.72;;;22.76
74449;BMP280;62878;51.026;4.472;2022-09-06T05:47:02;-6079.22;;;22.73
74449;BMP280;62878;51.026;4.472;2022-09-06T05:49:29;-6078.88;;;22.71
74449;BMP280;62878;51.026;4.472;2022-09-06T05:51:54;-6079.63;;;22.76
74449;BMP280;62878;51.026;4.472;2022-09-06T05:54:20;-6079.47;;;22.75
74449;BMP280;62878;51.026;4.472;2022-09-06T05:56:45;-6079.38;;;22.74
74449;BMP280;62878;51.026;4.472;2022-09-06T05:59:11;-6079.38;;;22.74
74449;BMP280;62878;51.026;4.472;2022-09-06T06:01:46;-6079.38;;;22.74
74449;BMP280;62878;51.026;4.472;2022-09-06T06:04:12;-6075.69;;;22.52
74449;BMP280;62878;51.026;4.472;2022-09-06T06:06:37;-6079.38;;;22.74
74449;BMP280;62878;51.026;4.472;2022-09-06T06:09:03;-6079.13;;;22.73
74449;BMP280;62878;51.026;4.472;2022-09-06T06:11:29;-6076.69;;;22.58
74449;BMP280;62878;51.026;4.472;2022-09-06T06:13:55;-6078.88;;;22.71
74449;BMP280;62878;51.026;4.472;2022-09-06T06:16:21;-6079.13;;;22.73
74449;BMP280;62878;51.026;4.472;2022-09-06T06:18:47;-6079.22;;;22.73
74449;BMP280;62878;51.026;4.472;2022-09-06T06:21:26;-6079.28;;;22.74
74449;BMP280;62878;51.026;4.472;2022-09-06T06:23:54;-6079.28;;;22.74
74449;BMP280;62878;51.026;4.472;2022-09-06T06:26:20;-6079.22;;;22.73
74449;BMP280;62878;51.026;4.472;2022-09-06T06:28:46;-6077.63;;;22.64
74449;BMP280;62878;51.026;4.472;2022-09-06T06:31:13;-6078.78;;;22.71
74449;BMP280;62878;51.026;4.472;2022-09-06T06:33:38;-6077.69;;;22.64
74449;BMP280;62878;51.026;4.472;2022-09-06T06:36:06;-6079.03;;;22.72
74449;BMP280;62878;51.026;4.472;2022-09-06T06:38:34;-6079.03;;;22.72
74449;BMP280;62878;51.026;4.472;2022-09-06T06:41:00;-6079.03;;;22.72
74449;BMP280;62878;51.026;4.472;2022-09-06T06:43:26;-6070.47;;;22.21
74449;BMP280;62878;51.026;4.472;2022-09-06T06:45:52;-6079.03;;;22.72
74449;BMP280;62878;51.026;4.472;2022-09-06T06:48:18;-6079.03;;;22.72
74449;BMP280;62878;51.026;4.472;2022-09-06T06:50:44;-6077.13;;;22.61
74449;BMP280;62878;51.026;4.472;2022-09-06T06:53:09;-6079.22;;;22.73
74449;BMP280;62878;51.026;4.472;2022-09-06T06:55:34;-6077.44;;;22.63
74449;BMP280;62878;51.026;4.472;2022-09-06T06:58:00;-6079.38;;;22.74
74449;BMP280;62878;51.026;4.472;2022-09-06T07:00:26;-6076.34;;;22.56
74449;BMP280;62878;51.026;4.472;2022-09-06T07:02:51;-6075.53;;;22.51
74449;BMP280;62878;51.026;4.472;2022-09-06T07:05:23;-6079.28;;;22.74
74449;BMP280;62878;51.026;4.472;2022-09-06T07:07:50;-6078.72;;;22.70
74449;BMP280;62878;51.026;4.472;2022-09-06T07:10:15;-6077.53;;;22.63
74449;BMP280;62878;51.026;4.472;2022-09-06T07:12:41;-6079.63;;;22.76
74449;BMP280;62878;51.026;4.472;2022-09-06T07:15:07;-6079.53;;;22.75
74449;BMP280;62878;51.026;4.472;2022-09-06T07:17:32;-6077.78;;;22.65
74449;BMP280;62878;51.026;4.472;2022-09-06T07:19:58;-6077.44;;;22.63
74449;BMP280;62878;51.026;4.472;2022-09-06T07:22:24;-6078.72;;;22.70
74449;BMP280;62878;51.026;4.472;2022-09-06T07:24:49;-6069.81;;;22.17
74449;BMP280;62878;51.026;4.472;2022-09-06T07:27:15;-6078.13;;;22.67
74449;BMP280;62878;51.026;4.472;2022-09-06T07:29:41;-6078.53;;;22.69
74449;BMP280;62878;51.026;4.472;2022-09-06T07:32:06;-6078.03;;;22.66
74449;BMP280;62878;51.026;4.472;2022-09-06T07:34:31;-6076.88;;;22.59
74449;BMP280;62878;51.026;4.472;2022-09-06T07:36:57;-6076.53;;;22.57
74449;BMP280;62878;51.026;4.472;2022-09-06T07:39:23;-6077.13;;;22.61
74449;BMP280;62878;51.026;4.472;2022-09-06T07:41:48;-6076.59;;;22.58
74449;BMP280;62878;51.026;4.472;2022-09-06T07:44:14;-6075.69;;;22.52
74449;BMP280;62878;51.026;4.472;2022-09-06T07:46:39;-6078.72;;;22.70
74449;BMP280;62878;51.026;4.472;2022-09-06T07:49:05;-6077.19;;;22.61
74449;BMP280;62878;51.026;4.472;2022-09-06T07:51:31;-6078.53;;;22.69
74449;BMP280;62878;51.026;4.472;2022-09-06T07:53:57;-6078.53;;;22.69
74449;BMP280;62878;51.026;4.472;2022-09-06T07:56:23;-6078.53;;;22.69
74449;BMP280;62878;51.026;4.472;2022-09-06T07:58:50;-6078.53;;;22.69
74449;BMP280;62878;51.026;4.472;2022-09-06T08:03:43;-6078.78;;;22.71
74449;BMP280;62878;51.026;4.472;2022-09-06T08:06:09;-6071.06;;;22.24
74449;BMP280;62878;51.026;4.472;2022-09-06T08:08:35;-6078.63;;;22.70
74449;BMP280;62878;51.026;4.472;2022-09-06T08:11:00;-6078.72;;;22.70
74449;BMP280;62878;51.026;4.472;2022-09-06T08:13:26;-6077.78;;;22.65
74449;BMP280;62878;51.026;4.472;2022-09-06T08:16:05;-6078.88;;;22.71
74449;BMP280;62878;51.026;4.472;2022-09-06T08:18:32;-6076.59;;;22.58
74449;BMP280;62878;51.026;4.472;2022-09-06T08:21:12;-6078.78;;;22.71
74449;BMP280;62878;51.026;4.472;2022-09-06T08:23:45;-6076.34;;;22.56
74449;BMP280;62878;51.026;4.472;2022-09-06T08:26:10;-6076.94;;;22.60
74449;BMP280;62878;51.026;4.472;2022-09-06T08:28:36;-6078.72;;;22.70
74449;BMP280;62878;51.026;4.472;2022-09-06T08:31:17;-6072.84;;;22.35
74449;BMP280;62878;51.026;4.472;2022-09-06T08:33:43;-6078.63;;;22.70
74449;BMP280;62878;51.026;4.472;2022-09-06T08:36:10;-6078.72;;;22.70
74449;BMP280;62878;51.026;4.472;2022-09-06T08:38:35;-6078.47;;;22.69
74449;BMP280;62878;51.026;4.472;2022-09-06T08:46:22;-6077.94;;;22.66
74449;BMP280;62878;51.026;4.472;2022-09-06T08:48:51;-6077.94;;;22.66
74449;BMP280;62878;51.026;4.472;2022-09-06T08:53:46;-6078.22;;;22.67
74449;BMP280;62878;51.026;4.472;2022-09-06T08:56:18;-6077.94;;;22.66
74449;BMP280;62878;51.026;4.472;2022-09-06T09:01:23;-6077.88;;;22.65
74449;BMP280;62878;51.026;4.472;2022-09-06T09:03:54;-6076.78;;;22.59
74449;BMP280;62878;51.026;4.472;2022-09-06T09:06:22;-6077.38;;;22.62
74449;BMP280;62878;51.026;4.472;2022-09-06T09:08:57;-6077.38;;;22.62
74449;BMP280;62878;51.026;4.472;2022-09-06T09:11:24;-6077.53;;;22.63
74449;BMP280;62878;51.026;4.472;2022-09-06T09:13:56;-6077.63;;;22.64
74449;BMP280;62878;51.026;4.472;2022-09-06T09:16:24;-6072.25;;;22.31
74449;BMP280;62878;51.026;4.472;2022-09-06T09:19:00;-6074.25;;;22.44
74449;BMP280;62878;51.026;4.472;2022-09-06T09:21:26;-6076.69;;;22.58
74449;BMP280;62878;51.026;4.472;2022-09-06T09:23:54;-6077.19;;;22.61
74449;BMP280;62878;51.026;4.472;2022-09-06T09:26:21;-6074.50;;;22.45
74449;BMP280;62878;51.026;4.472;2022-09-06T09:29:26;-6076.19;;;22.55
74449;BMP280;62878;51.026;4.472;2022-09-06T09:31:53;-6078.47;;;22.69
74449;BMP280;62878;51.026;4.472;2022-09-06T09:34:36;-6079.47;;;22.75
74449;BMP280;62878;51.026;4.472;2022-09-06T09:37:10;-6078.38;;;22.68
74449;BMP280;62878;51.026;4.472;2022-09-06T09:39:38;-6078.22;;;22.67
74449;BMP280;62878;51.026;4.472;2022-09-06T09:42:04;-6083.00;;;22.96
74449;BMP280;62878;51.026;4.472;2022-09-06T09:44:30;-6078.78;;;22.71
74449;BMP280;62878;51.026;4.472;2022-09-06T09:46:55;-6083.00;;;22.96
74449;BMP280;62878;51.026;4.472;2022-09-06T09:54:32;-6076.28;;;22.56
74449;BMP280;62878;51.026;4.472;2022-09-06T09:56:59;-6080.06;;;22.78
74449;BMP280;62878;51.026;4.472;2022-09-06T09:59:29;-6073.66;;;22.40
74449;BMP280;62878;51.026;4.472;2022-09-06T10:02:00;-6080.88;;;22.83
74449;BMP280;62878;51.026;4.472;2022-09-06T10:04:43;-6080.81;;;22.83
74449;BMP280;62878;51.026;4.472;2022-09-06T10:09:40;-6081.06;;;22.84
74449;BMP280;62878;51.026;4.472;2022-09-06T10:12:06;-6081.22;;;22.85
74449;BMP280;62878;51.026;4.472;2022-09-06T10:14:39;-6081.13;;;22.85
74449;BMP280;62878;51.026;4.472;2022-09-06T10:17:05;-6081.97;;;22.90
74449;BMP280;62878;51.026;4.472;2022-09-06T10:19:41;-6082.16;;;22.91
74449;BMP280;62878;51.026;4.472;2022-09-06T10:22:13;-6082.31;;;22.92
74449;BMP280;62878;51.026;4.472;2022-09-06T10:27:47;-6082.41;;;22.92
74449;BMP280;62878;51.026;4.472;2022-09-06T10:30:17;-6082.47;;;22.93
74449;BMP280;62878;51.026;4.472;2022-09-06T10:32:59;-6081.31;;;22.86
74449;BMP280;62878;51.026;4.472;2022-09-06T10:35:39;-6082.41;;;22.92
74449;BMP280;62878;51.026;4.472;2022-09-06T10:41:03;-6082.22;;;22.91
74449;BMP280;62878;51.026;4.472;2022-09-06T10:43:42;-6082.91;;;22.95
74449;BMP280;62878;51.026;4.472;2022-09-06T10:46:14;-6082.06;;;22.90
74449;BMP280;62878;51.026;4.472;2022-09-06T10:48:43;-6083.41;;;22.98
74449;BMP280;62878;51.026;4.472;2022-09-06T10:53:52;-6081.72;;;22.88
74449;BMP280;62878;51.026;4.472;2022-09-06T10:59:01;-6079.63;;;22.76
74449;BMP280;62878;51.026;4.472;2022-09-06T11:01:36;-6080.72;;;22.82
74449;BMP280;62878;51.026;4.472;2022-09-06T11:04:08;-6081.41;;;22.86
74449;BMP280;62878;51.026;4.472;2022-09-06T11:06:42;-6081.72;;;22.88
74449;BMP280;62878;51.026;4.472;2022-09-06T11:09:26;-6081.97;;;22.90
74449;BMP280;62878;51.026;4.472;2022-09-06T11:12:07;-6081.41;;;22.86
74449;BMP280;62878;51.026;4.472;2022-09-06T11:14:34;-6082.06;;;22.90
74449;BMP280;62878;51.026;4.472;2022-09-06T11:17:06;-6081.22;;;22.85
74449;BMP280;62878;51.026;4.472;2022-09-06T11:19:43;-6081.22;;;22.85
74449;BMP280;62878;51.026;4.472;2022-09-06T11:22:40;-6081.06;;;22.84
74449;BMP280;62878;51.026;4.472;2022-09-06T11:25:43;-6081.06;;;22.84
74449;BMP280;62878;51.026;4.472;2022-09-06T11:28:52;-6081.06;;;22.84
74449;BMP280;62878;51.026;4.472;2022-09-06T11:31:26;-6082.16;;;22.91
74449;BMP280;62878;51.026;4.472;2022-09-06T11:34:28;-6082.06;;;22.90
74449;BMP280;62878;51.026;4.472;2022-09-06T11:36:57;-6081.66;;;22.88
74449;BMP280;62878;51.026;4.472;2022-09-06T11:39:26;-6082.72;;;22.94
74449;BMP280;62878;51.026;4.472;2022-09-06T11:41:52;-6082.22;;;22.91
74449;BMP280;62878;51.026;4.472;2022-09-06T11:44:51;-6080.63;;;22.82
74449;BMP280;62878;51.026;4.472;2022-09-06T11:50:25;-6082.56;;;22.93
74449;BMP280;62878;51.026;4.472;2022-09-06T11:53:16;-6083.91;;;23.02
74449;BMP280;62878;51.026;4.472;2022-09-06T11:55:43;-6083.81;;;23.01
74449;BMP280;62878;51.026;4.472;2022-09-06T11:58:35;-6083.56;;;22.99
74449;BMP280;62878;51.026;4.472;2022-09-06T12:06:39;-6082.06;;;22.90
74449;BMP280;62878;51.026;4.472;2022-09-06T12:11:56;-6082.66;;;22.94
74449;BMP280;62878;51.026;4.472;2022-09-06T12:24:53;-6081.31;;;22.86
74449;BMP280;62878;51.026;4.472;2022-09-06T12:27:24;-6084.00;;;23.02
74449;BMP280;62878;51.026;4.472;2022-09-06T12:29:55;-6083.91;;;23.02
74449;BMP280;62878;51.026;4.472;2022-09-06T12:32:48;-6083.56;;;22.99
74449;BMP280;62878;51.026;4.472;2022-09-06T12:35:24;-6077.13;;;22.61
74449;BMP280;62878;51.026;4.472;2022-09-06T12:38:06;-6081.41;;;22.86
74449;BMP280;62878;51.026;4.472;2022-09-06T12:40:36;-6084.41;;;23.05
74449;BMP280;62878;51.026;4.472;2022-09-06T12:43:08;-6083.31;;;22.98
74449;BMP280;62878;51.026;4.472;2022-09-06T12:45:35;-6098.50;;;23.89
74449;BMP280;62878;51.026;4.472;2022-09-06T12:48:08;-6110.56;;;24.62
74449;BMP280;62878;51.026;4.472;2022-09-06T12:50:34;-6115.84;;;24.94
74449;BMP280;62878;51.026;4.472;2022-09-06T12:53:02;-6117.78;;;25.05
74449;BMP280;62878;51.026;4.472;2022-09-06T12:55:36;-6123.97;;;25.42
74449;BMP280;62878;51.026;4.472;2022-09-06T12:58:08;-6124.66;;;25.46
74449;BMP280;62878;51.026;4.472;2022-09-06T13:00:49;-6127.75;;;25.65
74449;BMP280;62878;51.026;4.472;2022-09-06T13:03:27;-6119.28;;;25.14
74449;BMP280;62878;51.026;4.472;2022-09-06T13:05:55;-6106.78;;;24.39
74449;BMP280;62878;51.026;4.472;2022-09-06T13:08:26;-6104.13;;;24.23
74449;BMP280;62878;51.026;4.472;2022-09-06T13:10:54;-6105.38;;;24.31
74449;BMP280;62878;51.026;4.472;2022-09-06T13:13:24;-6104.03;;;24.22
74449;BMP280;62878;51.026;4.472;2022-09-06T13:15:50;-6100.69;;;24.02
74449;BMP280;62878;51.026;4.472;2022-09-06T13:18:21;-6101.84;;;24.09
74449;BMP280;62878;51.026;4.472;2022-09-06T13:21:24;-6098.50;;;23.89
74449;BMP280;62878;51.026;4.472;2022-09-06T13:23:50;-6097.75;;;23.85
74449;BMP280;62878;51.026;4.472;2022-09-06T13:26:51;-6099.50;;;23.95
74449;BMP280;62878;51.026;4.472;2022-09-06T13:31:45;-6099.00;;;23.92
74449;BMP280;62878;51.026;4.472;2022-09-06T13:34:19;-6098.09;;;23.87
74449;BMP280;62878;51.026;4.472;2022-09-06T13:36:50;-6096.41;;;23.77
74449;BMP280;62878;51.026;4.472;2022-09-06T13:42:01;-6098.41;;;23.89
74449;BMP280;62878;51.026;4.472;2022-09-06T13:44:31;-6097.91;;;23.86
74449;BMP280;62878;51.026;4.472;2022-09-06T13:46:57;-6098.34;;;23.88
74449;BMP280;62878;51.026;4.472;2022-09-06T13:49:23;-6098.41;;;23.89
74449;BMP280;62878;51.026;4.472;2022-09-06T13:51:51;-6098.41;;;23.89
74449;BMP280;62878;51.026;4.472;2022-09-06T13:54:16;-6098.25;;;23.88
74449;BMP280;62878;51.026;4.472;2022-09-06T13:56:42;-6096.41;;;23.77
74449;BMP280;62878;51.026;4.472;2022-09-06T13:59:12;-6098.16;;;23.87
74449;BMP280;62878;51.026;4.472;2022-09-06T14:01:42;-6098.16;;;23.87
74449;BMP280;62878;51.026;4.472;2022-09-06T14:04:14;-6098.59;;;23.90
74449;BMP280;62878;51.026;4.472;2022-09-06T14:06:40;-6099.34;;;23.94
74449;BMP280;62878;51.026;4.472;2022-09-06T14:09:06;-6100.59;;;24.02
74449;BMP280;62878;51.026;4.472;2022-09-06T14:11:31;-6102.63;;;24.14
74449;BMP280;62878;51.026;4.472;2022-09-06T14:13:57;-6105.13;;;24.29
74449;BMP280;62878;51.026;4.472;2022-09-06T14:16:23;-6105.47;;;24.31
74449;BMP280;62878;51.026;4.472;2022-09-06T14:18:49;-6109.41;;;24.55
74449;BMP280;62878;51.026;4.472;2022-09-06T14:21:16;-6110.06;;;24.59
74449;BMP280;62878;51.026;4.472;2022-09-06T14:23:41;-6111.50;;;24.67
74449;BMP280;62878;51.026;4.472;2022-09-06T14:26:06;-6112.25;;;24.72
74449;BMP280;62878;51.026;4.472;2022-09-06T14:28:32;-6112.75;;;24.75
74449;BMP280;62878;51.026;4.472;2022-09-06T14:31:12;-6113.41;;;24.79
74449;BMP280;62878;51.026;4.472;2022-09-06T14:33:37;-6113.16;;;24.77
74449;BMP280;62878;51.026;4.472;2022-09-06T14:36:21;-6113.09;;;24.77
74449;BMP280;62878;51.026;4.472;2022-09-06T14:38:47;-6112.66;;;24.74
74449;BMP280;62878;51.026;4.472;2022-09-06T14:41:14;-6110.50;;;24.61
74449;BMP280;62878;51.026;4.472;2022-09-06T14:43:41;-6112.09;;;24.71
74449;BMP280;62878;51.026;4.472;2022-09-06T14:46:17;-6110.56;;;24.62
74449;BMP280;62878;51.026;4.472;2022-09-06T14:48:44;-6109.47;;;24.55
74449;BMP280;62878;51.026;4.472;2022-09-06T14:51:14;-6107.91;;;24.46
74449;BMP280;62878;51.026;4.472;2022-09-06T14:53:46;-6108.06;;;24.47
74449;BMP280;62878;51.026;4.472;2022-09-06T14:56:13;-6107.38;;;24.43
74449;BMP280;62878;51.026;4.472;2022-09-06T14:58:39;-6107.38;;;24.43
74449;BMP280;62878;51.026;4.472;2022-09-06T15:03:36;-6103.78;;;24.21
74449;BMP280;62878;51.026;4.472;2022-09-06T15:06:02;-6107.06;;;24.41
74449;BMP280;62878;51.026;4.472;2022-09-06T15:08:27;-6106.56;;;24.38
74449;BMP280;62878;51.026;4.472;2022-09-06T15:10:54;-6107.38;;;24.43
74449;BMP280;62878;51.026;4.472;2022-09-06T15:13:19;-6107.22;;;24.42
74449;BMP280;62878;51.026;4.472;2022-09-06T15:15:47;-6106.88;;;24.40
74449;BMP280;62878;51.026;4.472;2022-09-06T15:18:13;-6106.88;;;24.40
74449;BMP280;62878;51.026;4.472;2022-09-06T15:20:39;-6104.78;;;24.27
74449;BMP280;62878;51.026;4.472;2022-09-06T15:23:04;-6107.22;;;24.42
74449;BMP280;62878;51.026;4.472;2022-09-06T15:25:30;-6104.72;;;24.27
74449;BMP280;62878;51.026;4.472;2022-09-06T15:27:56;-6106.56;;;24.38
74449;BMP280;62878;51.026;4.472;2022-09-06T15:30:22;-6104.78;;;24.27
74449;BMP280;62878;51.026;4.472;2022-09-06T15:32:47;-6103.78;;;24.21
74449;BMP280;62878;51.026;4.472;2022-09-06T15:35:12;-6103.69;;;24.20
74449;BMP280;62878;51.026;4.472;2022-09-06T15:37:39;-6104.19;;;24.23
74449;BMP280;62878;51.026;4.472;2022-09-06T15:40:05;-6104.38;;;24.25
74449;BMP280;62878;51.026;4.472;2022-09-06T15:42:32;-6099.84;;;23.97
74449;BMP280;62878;51.026;4.472;2022-09-06T15:44:58;-6101.53;;;24.07
74449;BMP280;62878;51.026;4.472;2022-09-06T15:47:23;-6104.38;;;24.25
74449;BMP280;62878;51.026;4.472;2022-09-06T15:49:49;-6103.69;;;24.20
74449;BMP280;62878;51.026;4.472;2022-09-06T15:52:14;-6104.88;;;24.28
74449;BMP280;62878;51.026;4.472;2022-09-06T15:54:40;-6104.19;;;24.23